Time;durP1;ratioP1;P1;durP2;ratioP2;P2;SDS_P1;SDS_P2;PMS_P1;PMS_P2;Temp;Humidity;BMP_temperature;BMP_pressure;BME280_temperature;BME280_humidity;BME280_pressure;Samples;Min_cycle;Max_cycle;Signal;HPM_P1;HPM_P2
2023/03/12 00:00:03;;;;;;;4.53;4.10;;;0.60;66.00;;;;;;6284538;28;20240;-79
2023/03/12 00:03:06;;;;;;;4.63;4.23;;;0.60;66.10;;;;;;6282406;28;20239;-83
2023/03/12 00:06:09;;;;;;;4.87;4.60;;;0.50;66.10;;;;;;6295079;28;20722;-80
2023/03/12 00:09:14;;;;;;;4.67;4.47;;;0.60;66.00;;;;;;6283188;28;20235;-80
2023/03/12 00:12:17;;;;;;;4.40;4.20;;;0.60;65.90;;;;;;6294324;28;20307;-81
2023/03/12 00:15:20;;;;;;;4.67;4.27;;;0.60;66.00;;;;;;6261073;28;20237;-78
2023/03/12 00:18:23;;;;;;;4.60;4.20;;;0.60;65.90;;;;;;6283004;28;20319;-81
2023/03/12 00:21:27;;;;;;;4.43;4.13;;;0.60;65.90;;;;;;6276123;28;20252;-80
2023/03/12 00:24:31;;;;;;;4.20;3.90;;;0.50;65.90;;;;;;6277627;28;20256;-77
2023/03/12 00:27:34;;;;;;;4.53;4.23;;;0.60;65.70;;;;;;6294221;28;20239;-81
2023/03/12 00:30:39;;;;;;;4.03;3.83;;;0.50;65.70;;;;;;6285211;28;20499;-79
2023/03/12 00:33:42;;;;;;;5.60;3.77;;;0.50;65.90;;;;;;6274019;28;20236;-79
2023/03/12 00:36:45;;;;;;;4.50;4.10;;;0.50;65.80;;;;;;6273884;28;20233;-78
2023/03/12 00:39:50;;;;;;;4.50;4.20;;;0.50;65.60;;;;;;6285626;28;20620;-82
2023/03/12 00:42:53;;;;;;;4.93;4.27;;;0.50;65.70;;;;;;6287598;28;20233;-83
2023/03/12 00:45:56;;;;;;;3.77;3.70;;;0.50;65.50;;;;;;6290370;28;20233;-78
2023/03/12 00:48:59;;;;;;;4.40;4.20;;;0.60;65.40;;;;;;6285885;28;20789;-81
2023/03/12 00:52:02;;;;;;;4.47;4.27;;;0.60;65.50;;;;;;6284548;28;20237;-81
2023/03/12 00:55:08;;;;;;;4.03;3.90;;;0.60;65.50;;;;;;6285305;28;20320;-82
2023/03/12 00:58:11;;;;;;;4.57;4.23;;;0.60;65.30;;;;;;6285316;28;20230;-81
2023/03/12 01:01:14;;;;;;;4.30;4.17;;;0.60;65.40;;;;;;6292355;27;20397;-79
2023/03/12 01:04:17;;;;;;;5.33;4.77;;;0.60;65.30;;;;;;6291715;28;20236;-80
2023/03/12 01:07:22;;;;;;;4.77;4.57;;;0.60;65.30;;;;;;6291631;28;20471;-80
2023/03/12 01:10:27;;;;;;;4.50;4.30;;;0.70;65.20;;;;;;6307402;28;20404;-80
2023/03/12 01:13:30;;;;;;;4.70;4.40;;;0.80;65.10;;;;;;6305662;28;20237;-78
2023/03/12 01:16:33;;;;;;;4.40;4.10;;;0.80;64.80;;;;;;6298618;28;20248;-79
2023/03/12 01:19:37;;;;;;;4.53;4.23;;;0.80;64.90;;;;;;6284717;28;20241;-80
2023/03/12 01:22:40;;;;;;;5.50;4.17;;;0.90;64.70;;;;;;6292383;28;20236;-82
2023/03/12 01:25:46;;;;;;;4.37;4.17;;;0.90;64.80;;;;;;6284528;28;20241;-81
2023/03/12 01:28:49;;;;;;;4.60;4.30;;;1.00;64.70;;;;;;6284101;28;20238;-81
2023/03/12 01:31:52;;;;;;;4.27;4.07;;;1.00;64.60;;;;;;6280194;28;20620;-81
2023/03/12 01:34:57;;;;;;;5.17;4.77;;;1.00;64.50;;;;;;6286205;28;20233;-80
2023/03/12 01:38:00;;;;;;;4.20;4.00;;;1.00;64.80;;;;;;6283849;28;20701;-81
2023/03/12 01:41:05;;;;;;;4.33;4.23;;;1.00;64.60;;;;;;6290634;28;20263;-82
2023/03/12 01:44:12;;;;;;;4.50;4.30;;;0.90;64.80;;;;;;6292940;28;20336;-82
2023/03/12 01:47:15;;;;;;;4.50;4.20;;;0.90;65.20;;;;;;6289208;28;20233;-82
2023/03/12 01:50:18;;;;;;;4.43;4.23;;;1.00;65.40;;;;;;6289538;28;20248;-81
2023/03/12 01:53:22;;;;;;;4.30;4.10;;;1.00;65.40;;;;;;6284652;28;20899;-81
2023/03/12 01:56:30;;;;;;;4.83;4.07;;;1.00;65.40;;;;;;6289528;28;20237;-78
2023/03/12 01:59:36;;;;;;;4.40;4.20;;;1.00;65.40;;;;;;6297068;28;20473;-79
2023/03/12 02:02:41;;;;;;;4.63;4.53;;;1.00;65.40;;;;;;6287828;28;20531;-80
2023/03/12 02:05:51;;;;;;;5.07;4.67;;;1.00;65.60;;;;;;6288850;28;20388;-80
2023/03/12 02:08:59;;;;;;;6.20;4.70;;;1.00;65.60;;;;;;6285989;28;20743;-80
2023/03/12 02:12:03;;;;;;;4.70;4.33;;;1.00;65.70;;;;;;6295442;27;20532;-81
2023/03/12 02:15:09;;;;;;;4.77;4.47;;;1.10;65.60;;;;;;6288499;28;20226;-83
2023/03/12 02:18:17;;;;;;;4.57;4.17;;;1.10;65.50;;;;;;6292317;28;20474;-80
2023/03/12 02:21:23;;;;;;;5.10;4.63;;;1.00;65.50;;;;;;6256040;28;20244;-83
2023/03/12 02:24:34;;;;;;;4.77;4.37;;;1.00;65.50;;;;;;6283383;28;20244;-81
2023/03/12 02:27:39;;;;;;;4.77;4.30;;;1.10;65.40;;;;;;6289265;28;20241;-80
2023/03/12 02:30:47;;;;;;;4.80;4.50;;;1.00;65.30;;;;;;6315923;27;20241;-81
2023/03/12 02:33:51;;;;;;;4.30;4.10;;;1.00;65.50;;;;;;6288244;28;20245;-82
2023/03/12 02:36:54;;;;;;;5.07;4.60;;;1.00;65.60;;;;;;6290342;28;20244;-80
2023/03/12 02:40:04;;;;;;;4.23;4.13;;;1.00;65.50;;;;;;6288513;28;20821;-85
2023/03/12 02:43:10;;;;;;;4.87;4.67;;;0.90;65.80;;;;;;6286511;28;20237;-80
2023/03/12 02:46:13;;;;;;;4.87;4.47;;;0.80;66.00;;;;;;6274690;28;20416;-79
2023/03/12 02:49:17;;;;;;;4.43;4.23;;;0.70;66.20;;;;;;6280444;28;20229;-83
2023/03/12 02:52:20;;;;;;;4.90;4.70;;;0.70;66.20;;;;;;6275326;28;20721;-84
2023/03/12 02:55:23;;;;;;;5.20;4.90;;;0.60;66.20;;;;;;6319823;27;20741;-83
2023/03/12 02:58:28;;;;;;;4.27;4.10;;;0.60;66.50;;;;;;6299241;28;20317;-83
2023/03/12 03:01:32;;;;;;;4.83;4.60;;;0.60;66.60;;;;;;6289839;28;20245;-80
2023/03/12 03:04:36;;;;;;;4.77;4.60;;;0.60;66.70;;;;;;6294343;28;20233;-82
2023/03/12 03:07:39;;;;;;;5.13;4.53;;;0.50;66.90;;;;;;6294763;28;20241;-82
2023/03/12 03:10:42;;;;;;;5.03;4.80;;;0.50;67.00;;;;;;6294575;28;20756;-82
2023/03/12 03:13:46;;;;;;;7.43;4.90;;;0.40;67.10;;;;;;6294797;27;20248;-82
2023/03/12 03:16:49;;;;;;;5.83;4.40;;;0.40;67.40;;;;;;6292641;28;20477;-82
2023/03/12 03:19:53;;;;;;;6.13;4.87;;;0.30;67.50;;;;;;6292148;28;20229;-80
2023/03/12 03:22:56;;;;;;;5.10;5.00;;;0.30;67.50;;;;;;6292412;28;20404;-83
2023/03/12 03:25:59;;;;;;;5.63;5.23;;;0.30;67.60;;;;;;6297213;28;20229;-81
2023/03/12 03:29:04;;;;;;;5.27;4.80;;;0.30;67.70;;;;;;6300750;28;20233;-82
2023/03/12 03:32:07;;;;;;;5.23;4.80;;;0.20;67.70;;;;;;6307091;27;20426;-81
2023/03/12 03:35:10;;;;;;;5.63;5.33;;;0.20;67.90;;;;;;6307583;27;20311;-77
2023/03/12 03:38:13;;;;;;;5.30;4.90;;;0.10;68.20;;;;;;6320041;27;20448;-78
2023/03/12 03:41:17;;;;;;;4.90;4.53;;;0.00;68.50;;;;;;6327423;28;20232;-79
2023/03/12 03:44:22;;;;;;;5.50;5.10;;;0.00;68.50;;;;;;6317761;28;20229;-76
2023/03/12 03:47:26;;;;;;;5.27;4.83;;;0.00;68.50;;;;;;6314261;28;20236;-75
2023/03/12 03:50:29;;;;;;;4.90;4.50;;;0.00;68.70;;;;;;6341074;28;20232;-79
2023/03/12 03:53:33;;;;;;;5.30;4.87;;;0.00;68.70;;;;;;6290847;28;20385;-79
2023/03/12 03:56:36;;;;;;;4.80;4.50;;;0.00;68.50;;;;;;6306109;28;20238;-78
2023/03/12 03:59:40;;;;;;;7.00;4.67;;;0.00;68.60;;;;;;6303516;28;20237;-83
2023/03/12 04:02:44;;;;;;;5.50;5.07;;;0.00;68.80;;;;;;6284424;28;20317;-82
2023/03/12 04:05:47;;;;;;;9.37;5.37;;;0.00;68.60;;;;;;6290584;28;20234;-82
2023/03/12 04:08:50;;;;;;;5.50;5.20;;;0.00;68.50;;;;;;6296804;28;20237;-80
2023/03/12 04:11:53;;;;;;;5.33;4.80;;;0.00;68.70;;;;;;6279790;28;20713;-81
2023/03/12 04:14:57;;;;;;;5.13;4.83;;;0.00;68.50;;;;;;6287494;28;20391;-82
2023/03/12 04:18:00;;;;;;;5.27;4.80;;;0.00;68.70;;;;;;6300396;28;20225;-79
2023/03/12 04:21:04;;;;;;;7.80;5.13;;;-0.10;69.00;;;;;;6319183;28;20259;-78
2023/03/12 04:24:08;;;;;;;5.63;5.17;;;-0.10;69.10;;;;;;6312366;28;20221;-79
2023/03/12 04:27:11;;;;;;;5.70;5.27;;;-0.10;69.40;;;;;;6316982;28;20297;-77
2023/03/12 04:30:16;;;;;;;6.57;5.97;;;-0.10;69.40;;;;;;6337774;28;20248;-80
2023/03/12 04:33:19;;;;;;;7.77;5.60;;;-0.10;69.40;;;;;;6277906;28;20249;-82
2023/03/12 04:36:22;;;;;;;6.67;5.80;;;-0.10;69.80;;;;;;6287399;28;20237;-82
2023/03/12 04:39:26;;;;;;;6.47;6.00;;;-0.10;69.70;;;;;;6288831;28;20237;-83
2023/03/12 04:42:29;;;;;;;6.43;5.93;;;-0.10;70.00;;;;;;6281362;28;20238;-82
2023/03/12 04:45:33;;;;;;;6.47;6.10;;;-0.10;70.30;;;;;;6279394;28;20276;-83
2023/03/12 04:48:36;;;;;;;6.93;6.43;;;-0.20;70.50;;;;;;6280328;28;20239;-80
2023/03/12 04:51:40;;;;;;;6.83;6.27;;;-0.20;70.70;;;;;;6264692;28;20314;-82
2023/03/12 04:54:43;;;;;;;7.57;6.83;;;-0.20;71.00;;;;;;6273413;28;20329;-82
2023/03/12 04:57:49;;;;;;;8.73;7.37;;;-0.20;71.20;;;;;;6274816;28;20653;-81
2023/03/12 05:00:54;;;;;;;6.80;6.40;;;-0.20;71.30;;;;;;6286866;28;20236;-78
2023/03/12 05:03:58;;;;;;;7.90;7.20;;;-0.20;71.30;;;;;;6293308;28;20233;-78
2023/03/12 05:07:01;;;;;;;9.10;6.63;;;-0.30;71.40;;;;;;6285200;28;20253;-81
2023/03/12 05:10:05;;;;;;;7.90;7.20;;;-0.30;71.60;;;;;;6283037;28;20743;-78
2023/03/12 05:13:14;;;;;;;7.70;7.23;;;-0.30;71.70;;;;;;6291050;28;20620;-77
2023/03/12 05:16:19;;;;;;;7.37;6.67;;;-0.30;71.80;;;;;;6288715;28;20229;-77
2023/03/12 05:19:22;;;;;;;7.63;6.60;;;-0.30;71.80;;;;;;6280596;28;20352;-80
2023/03/12 05:22:25;;;;;;;7.40;6.73;;;-0.30;71.90;;;;;;6275808;28;20267;-79
2023/03/12 05:25:28;;;;;;;7.77;7.20;;;-0.30;72.00;;;;;;6290470;28;20256;-79
2023/03/12 05:28:31;;;;;;;7.40;6.80;;;-0.40;72.00;;;;;;6284447;28;20702;-80
2023/03/12 05:31:35;;;;;;;7.83;6.70;;;-0.40;72.10;;;;;;6272799;28;20248;-77
2023/03/12 05:34:38;;;;;;;7.53;6.93;;;-0.40;72.10;;;;;;6270163;28;20249;-79
2023/03/12 05:37:42;;;;;;;7.67;7.07;;;-0.40;72.10;;;;;;6282118;28;20601;-79
2023/03/12 05:40:52;;;;;;;7.23;6.77;;;-0.40;72.10;;;;;;6274832;28;20242;-78
2023/03/12 05:43:57;;;;;;;6.97;6.27;;;-0.40;72.00;;;;;;6275799;28;20237;-79
2023/03/12 05:47:01;;;;;;;7.53;6.73;;;-0.40;72.00;;;;;;6295001;28;20245;-79
2023/03/12 05:50:05;;;;;;;6.70;6.20;;;-0.40;71.90;;;;;;6281142;28;20237;-80
2023/03/12 05:53:08;;;;;;;6.97;6.47;;;-0.30;71.70;;;;;;6312827;27;20233;-78
2023/03/12 05:56:13;;;;;;;6.70;6.10;;;-0.30;71.70;;;;;;6286886;28;20236;-79
2023/03/12 05:59:16;;;;;;;6.70;6.23;;;-0.40;71.70;;;;;;6290344;27;20229;-75
2023/03/12 06:02:22;;;;;;;5.90;5.47;;;-0.40;71.90;;;;;;6287192;28;20240;-79
2023/03/12 06:05:25;;;;;;;6.83;6.37;;;-0.40;71.80;;;;;;6307337;28;20297;-77
2023/03/12 06:08:28;;;;;;;8.17;5.77;;;-0.40;71.70;;;;;;6306989;28;20233;-74
2023/03/12 06:11:33;;;;;;;6.13;5.80;;;-0.30;71.50;;;;;;6296171;28;20241;-78
2023/03/12 06:14:36;;;;;;;6.17;5.77;;;-0.30;71.50;;;;;;6280314;28;20769;-78
2023/03/12 06:17:40;;;;;;;6.20;5.67;;;-0.30;71.40;;;;;;6263904;28;20233;-79
2023/03/12 06:20:43;;;;;;;6.10;5.60;;;-0.30;71.40;;;;;;6277288;28;20240;-79
2023/03/12 06:23:48;;;;;;;6.87;6.33;;;-0.30;71.50;;;;;;6280794;28;20226;-79
2023/03/12 06:26:53;;;;;;;6.00;5.60;;;-0.20;71.40;;;;;;6265122;28;20230;-78
2023/03/12 06:29:57;;;;;;;6.33;5.93;;;-0.20;71.20;;;;;;6268179;28;20265;-79
2023/03/12 06:33:02;;;;;;;6.73;6.13;;;-0.10;71.20;;;;;;6277386;28;20237;-77
2023/03/12 06:36:09;;;;;;;6.57;5.63;;;0.00;71.10;;;;;;6276493;28;20245;-79
2023/03/12 06:39:12;;;;;;;6.10;5.30;;;0.30;70.60;;;;;;6270764;28;20767;-80
2023/03/12 06:42:16;;;;;;;6.23;5.83;;;0.50;69.70;;;;;;6254572;28;20791;-78
2023/03/12 06:45:20;;;;;;;5.90;5.50;;;0.60;69.10;;;;;;6279338;28;20228;-76
2023/03/12 06:48:26;;;;;;;6.83;6.23;;;0.60;69.00;;;;;;6269704;28;20230;-76
2023/03/12 06:51:29;;;;;;;7.57;6.87;;;0.50;69.30;;;;;;6267863;28;20248;-78
2023/03/12 06:54:32;;;;;;;6.47;6.07;;;0.50;69.40;;;;;;6265918;28;20249;-78
2023/03/12 06:57:35;;;;;;;7.23;5.30;;;0.50;69.20;;;;;;6284607;27;20243;-80
2023/03/12 07:00:39;;;;;;;5.80;5.50;;;0.60;69.00;;;;;;6291995;27;20700;-76
2023/03/12 07:03:43;;;;;;;7.67;5.50;;;0.60;68.90;;;;;;6273453;28;20297;-77
2023/03/12 07:06:49;;;;;;;6.00;5.43;;;0.70;68.70;;;;;;6285814;28;20233;-76
2023/03/12 07:09:53;;;;;;;6.47;5.70;;;0.60;68.80;;;;;;6267665;28;20233;-79
2023/03/12 07:12:56;;;;;;;6.20;5.60;;;0.80;68.90;;;;;;6285784;28;20226;-79
2023/03/12 07:15:59;;;;;;;6.23;5.83;;;1.00;68.50;;;;;;6288160;28;20233;-77
2023/03/12 07:19:04;;;;;;;5.90;5.70;;;1.00;68.20;;;;;;6265588;28;20246;-78
2023/03/12 07:22:07;;;;;;;7.03;6.43;;;1.00;68.60;;;;;;6284788;28;20244;-77
2023/03/12 07:25:11;;;;;;;6.70;5.97;;;1.30;68.00;;;;;;6269448;28;20302;-79
2023/03/12 07:28:15;;;;;;;5.67;5.37;;;1.60;67.20;;;;;;6260386;28;20238;-77
2023/03/12 07:31:18;;;;;;;6.77;6.17;;;1.60;66.90;;;;;;6276688;28;20596;-78
2023/03/12 07:34:23;;;;;;;6.37;5.97;;;1.60;66.80;;;;;;6288020;28;20740;-78
2023/03/12 07:37:26;;;;;;;5.77;5.37;;;1.60;66.80;;;;;;6287583;28;20229;-78
2023/03/12 07:40:29;;;;;;;6.53;5.93;;;1.70;66.90;;;;;;6291512;27;20237;-80
2023/03/12 07:43:32;;;;;;;6.37;5.50;;;1.60;66.30;;;;;;6270711;28;20299;-80
2023/03/12 07:46:35;;;;;;;6.13;5.53;;;1.50;66.50;;;;;;6288751;28;20240;-78
2023/03/12 07:49:40;;;;;;;6.90;6.23;;;1.50;66.60;;;;;;6281169;28;20387;-78
2023/03/12 07:52:44;;;;;;;5.77;5.43;;;1.50;66.70;;;;;;6274419;28;20242;-80
2023/03/12 07:55:47;;;;;;;5.70;5.30;;;1.40;66.80;;;;;;6268394;28;20244;-82
2023/03/12 07:58:51;;;;;;;5.57;5.27;;;1.40;66.70;;;;;;6285075;28;20244;-80
2023/03/12 08:01:56;;;;;;;5.87;5.40;;;1.50;66.60;;;;;;6275964;28;20232;-78
2023/03/12 08:05:00;;;;;;;6.33;5.73;;;1.70;66.50;;;;;;6269582;28;20311;-76
2023/03/12 08:08:04;;;;;;;6.37;5.90;;;1.70;66.00;;;;;;6279818;28;20328;-77
2023/03/12 08:11:07;;;;;;;7.00;5.80;;;1.80;65.90;;;;;;6268690;28;20237;-79
2023/03/12 08:14:11;;;;;;;6.50;5.60;;;1.90;65.60;;;;;;6251149;28;20683;-77
2023/03/12 08:17:14;;;;;;;7.13;5.20;;;1.90;65.60;;;;;;6282840;28;20233;-79
2023/03/12 08:20:19;;;;;;;6.33;5.10;;;1.90;65.50;;;;;;6279555;28;20262;-77
2023/03/12 08:23:22;;;;;;;5.80;5.47;;;2.10;65.20;;;;;;6285739;28;20881;-77
2023/03/12 08:26:25;;;;;;;6.73;5.37;;;2.10;65.10;;;;;;6284671;28;20265;-79
2023/03/12 08:29:28;;;;;;;5.57;5.27;;;2.10;64.80;;;;;;6262627;28;20749;-79
2023/03/12 08:32:31;;;;;;;5.93;5.40;;;2.20;64.40;;;;;;6269089;28;20234;-80
2023/03/12 08:35:36;;;;;;;7.07;5.23;;;2.40;64.00;;;;;;6268552;28;20234;-81
2023/03/12 08:38:40;;;;;;;5.50;5.30;;;2.50;64.60;;;;;;6282470;28;20324;-78
2023/03/12 08:41:44;;;;;;;7.73;5.73;;;2.70;63.50;;;;;;6296768;28;20631;-79
2023/03/12 08:44:47;;;;;;;5.10;4.70;;;2.70;62.70;;;;;;6272562;28;20241;-78
2023/03/12 08:47:50;;;;;;;5.27;4.97;;;2.90;62.50;;;;;;6280019;28;20360;-78
2023/03/12 08:50:56;;;;;;;5.37;5.00;;;3.10;62.50;;;;;;6268625;28;20242;-79
2023/03/12 08:53:59;;;;;;;4.90;4.60;;;3.20;62.30;;;;;;6296733;28;20736;-79
2023/03/12 08:57:02;;;;;;;5.90;5.40;;;3.30;62.20;;;;;;6283670;28;20245;-80
2023/03/12 09:00:12;;;;;;;5.43;4.97;;;3.50;61.60;;;;;;6287678;28;20241;-78
2023/03/12 09:03:15;;;;;;;7.60;6.03;;;3.60;61.30;;;;;;6290172;28;20936;-77
2023/03/12 09:06:20;;;;;;;5.13;4.83;;;3.50;61.40;;;;;;6273044;28;20276;-77
2023/03/12 09:09:23;;;;;;;5.50;5.30;;;3.50;61.70;;;;;;6267711;28;20595;-80
2023/03/12 09:12:26;;;;;;;4.30;4.10;;;3.50;60.90;;;;;;6281633;28;20263;-79
2023/03/12 09:15:29;;;;;;;5.63;5.20;;;3.50;60.70;;;;;;6286778;28;20233;-80
2023/03/12 09:18:34;;;;;;;4.70;4.47;;;3.70;60.20;;;;;;6274655;28;20255;-78
2023/03/12 09:21:38;;;;;;;4.53;4.33;;;3.70;61.10;;;;;;6291037;27;20237;-77
2023/03/12 09:24:41;;;;;;;4.83;4.53;;;4.00;59.60;;;;;;6283151;28;20241;-80
2023/03/12 09:27:46;;;;;;;7.37;5.17;;;4.00;59.70;;;;;;6282217;28;20241;-76
2023/03/12 09:30:50;;;;;;;6.90;4.90;;;4.00;60.30;;;;;;6296165;28;20233;-76
2023/03/12 09:33:53;;;;;;;4.57;4.37;;;4.20;59.80;;;;;;6285919;28;20247;-76
2023/03/12 09:36:58;;;;;;;4.90;4.60;;;4.40;58.90;;;;;;6285443;28;20244;-78
2023/03/12 09:40:01;;;;;;;3.97;3.77;;;4.40;59.00;;;;;;6282857;28;20728;-75
2023/03/12 09:43:08;;;;;;;4.30;4.10;;;4.50;57.90;;;;;;6275327;28;20233;-76
2023/03/12 09:46:17;;;;;;;4.90;4.50;;;4.70;58.20;;;;;;6294596;28;20241;-79
2023/03/12 09:49:30;;;;;;;4.90;4.60;;;4.50;58.60;;;;;;6281053;28;20234;-79
2023/03/12 09:52:40;;;;;;;5.77;4.80;;;4.50;58.90;;;;;;6286668;28;20238;-77
2023/03/12 09:55:47;;;;;;;4.63;4.37;;;4.70;58.50;;;;;;6286359;28;20240;-79
2023/03/12 09:58:53;;;;;;;4.63;4.40;;;4.70;58.50;;;;;;6291476;27;20238;-75
2023/03/12 10:01:59;;;;;;;4.80;4.50;;;4.70;58.90;;;;;;6280834;28;20241;-78
2023/03/12 10:05:06;;;;;;;3.93;3.73;;;4.90;59.00;;;;;;6272998;28;20225;-76
2023/03/12 10:08:20;;;;;;;5.47;4.43;;;5.20;58.80;;;;;;6272804;27;20241;-78
2023/03/12 10:11:42;;;;;;;4.07;3.87;;;5.40;58.00;;;;;;6264009;28;20306;-77
2023/03/12 10:14:56;;;;;;;5.30;3.60;;;5.30;56.70;;;;;;6280778;28;20225;-78
2023/03/12 10:18:10;;;;;;;5.53;4.13;;;5.50;56.50;;;;;;6277846;28;20253;-74
2023/03/12 10:21:22;;;;;;;4.17;4.00;;;5.70;56.70;;;;;;6274891;28;20736;-74
2023/03/12 10:24:36;;;;;;;4.73;4.30;;;5.60;57.30;;;;;;6284736;28;20955;-75
2023/03/12 10:27:41;;;;;;;4.30;4.00;;;5.90;55.90;;;;;;6286846;28;20724;-78
2023/03/12 10:30:50;;;;;;;5.07;4.67;;;5.80;56.30;;;;;;6288279;28;20241;-78
2023/03/12 10:33:56;;;;;;;4.50;4.30;;;5.90;56.00;;;;;;6287855;28;20314;-77
2023/03/12 10:37:05;;;;;;;5.77;4.23;;;5.90;55.70;;;;;;6297043;28;20237;-78
2023/03/12 10:40:15;;;;;;;4.73;4.37;;;6.00;55.30;;;;;;6288776;28;20234;-78
2023/03/12 10:43:17;;;;;;;4.30;4.10;;;5.80;55.30;;;;;;6268626;28;20354;-76
2023/03/12 10:46:45;;;;;;;5.00;4.17;;;5.90;55.10;;;;;;6275015;28;21043;-78
2023/03/12 10:49:50;;;;;;;4.20;3.90;;;6.10;55.10;;;;;;6282138;28;20317;-78
2023/03/12 10:53:12;;;;;;;4.70;4.30;;;6.10;54.40;;;;;;6265381;28;20332;-77
2023/03/12 10:56:18;;;;;;;3.63;3.53;;;6.20;54.70;;;;;;6263786;28;20257;-78
2023/03/12 10:59:23;;;;;;;3.30;3.10;;;6.20;53.90;;;;;;6266489;28;20502;-75
2023/03/12 11:02:34;;;;;;;4.13;3.80;;;6.10;53.70;;;;;;6268328;28;20624;-77
2023/03/12 11:05:47;;;;;;;3.73;3.63;;;6.10;53.70;;;;;;6292155;28;20251;-78
2023/03/12 11:09:05;;;;;;;4.10;3.80;;;6.30;54.10;;;;;;6290097;28;20495;-78
2023/03/12 11:12:29;;;;;;;3.67;3.43;;;6.60;53.80;;;;;;6289642;28;20294;-78
2023/03/12 11:15:40;;;;;;;4.77;3.30;;;6.70;53.80;;;;;;6282292;28;20225;-75
2023/03/12 11:18:55;;;;;;;3.30;3.20;;;6.90;52.80;;;;;;6287406;28;20360;-77
2023/03/12 11:21:59;;;;;;;3.63;3.43;;;7.00;51.70;;;;;;6269196;28;20246;-77
2023/03/12 11:25:05;;;;;;;5.93;3.97;;;6.90;52.30;;;;;;6270632;28;20779;-78
2023/03/12 11:28:22;;;;;;;5.37;4.20;;;6.80;51.60;;;;;;6285429;28;20504;-74
2023/03/12 11:31:28;;;;;;;4.47;4.07;;;6.80;53.50;;;;;;6279381;28;20306;-78
2023/03/12 11:34:34;;;;;;;6.33;4.00;;;6.70;52.70;;;;;;6269375;28;20257;-77
2023/03/12 11:37:48;;;;;;;6.53;5.13;;;6.90;51.80;;;;;;6285101;28;20229;-78
2023/03/12 11:41:10;;;;;;;4.37;4.23;;;6.80;51.70;;;;;;6269676;28;20240;-79
2023/03/12 11:44:40;;;;;;;5.23;4.57;;;6.70;51.40;;;;;;6266099;28;20244;-78
2023/03/12 11:47:59;;;;;;;5.00;4.50;;;6.70;51.90;;;;;;6267963;28;20241;-77
2023/03/12 11:51:14;;;;;;;4.67;4.37;;;6.60;50.40;;;;;;6297751;28;20222;-76
2023/03/12 11:54:39;;;;;;;4.70;4.33;;;6.30;51.40;;;;;;6295121;28;20218;-76
2023/03/12 11:57:52;;;;;;;4.93;4.50;;;6.50;51.10;;;;;;6294390;28;20260;-76
2023/03/12 12:01:04;;;;;;;5.27;4.83;;;6.60;50.60;;;;;;6290282;28;20349;-77
2023/03/12 12:04:38;;;;;;;4.93;4.73;;;6.80;51.10;;;;;;6318815;28;20213;-76
2023/03/12 12:07:52;;;;;;;5.03;4.80;;;6.80;51.00;;;;;;6275027;28;20580;-77
2023/03/12 12:11:04;;;;;;;5.07;4.67;;;6.70;50.50;;;;;;6290509;28;20251;-78
2023/03/12 12:14:17;;;;;;;5.40;4.67;;;6.60;49.70;;;;;;6277325;28;20226;-76
2023/03/12 12:17:30;;;;;;;4.60;4.30;;;6.50;49.50;;;;;;6264392;28;20241;-80
2023/03/12 12:20:43;;;;;;;4.50;4.20;;;6.50;49.80;;;;;;6257766;28;20391;-78
2023/03/12 12:23:54;;;;;;;4.33;4.00;;;6.40;47.60;;;;;;6271437;28;20225;-78
2023/03/12 12:27:05;;;;;;;3.90;3.80;;;6.40;45.30;;;;;;6261814;28;20268;-80
2023/03/12 12:30:22;;;;;;;4.30;4.00;;;6.50;46.90;;;;;;6268577;28;20233;-78
2023/03/12 12:33:40;;;;;;;3.60;3.60;;;6.60;46.20;;;;;;6298484;28;20233;-77
2023/03/12 12:36:50;;;;;;;4.73;4.43;;;6.50;45.80;;;;;;6308041;28;20239;-76
2023/03/12 12:40:00;;;;;;;4.60;4.23;;;6.40;46.90;;;;;;6306695;28;20327;-77
2023/03/12 12:43:15;;;;;;;4.80;4.60;;;6.50;46.20;;;;;;6300955;28;20321;-78
2023/03/12 12:46:20;;;;;;;6.50;6.00;;;6.30;46.80;;;;;;6312313;28;20243;-78
2023/03/12 12:49:33;;;;;;;4.73;4.47;;;6.40;47.20;;;;;;6265096;28;20222;-79
2023/03/12 12:52:37;;;;;;;4.83;4.43;;;6.50;46.30;;;;;;6289143;28;20232;-77
2023/03/12 12:55:50;;;;;;;5.03;4.73;;;6.40;46.60;;;;;;6269638;28;20225;-77
2023/03/12 12:59:22;;;;;;;4.60;4.47;;;6.40;44.60;;;;;;6269074;28;20259;-77
2023/03/12 13:02:28;;;;;;;4.67;4.47;;;6.30;45.30;;;;;;6276636;28;20313;-79
2023/03/12 13:05:49;;;;;;;5.23;4.93;;;6.40;46.60;;;;;;6260946;28;20633;-78
2023/03/12 13:09:01;;;;;;;5.40;4.70;;;6.40;46.90;;;;;;6269274;28;20238;-77
2023/03/12 13:12:18;;;;;;;5.10;4.77;;;6.40;47.10;;;;;;6292922;27;20245;-78
2023/03/12 13:15:39;;;;;;;5.60;5.20;;;6.20;47.20;;;;;;6269983;28;20821;-77
2023/03/12 13:18:56;;;;;;;4.83;4.70;;;6.20;47.20;;;;;;6281570;28;20245;-78
2023/03/12 13:22:10;;;;;;;4.60;4.40;;;6.00;46.50;;;;;;6283847;28;20232;-79
2023/03/12 13:25:27;;;;;;;4.80;4.40;;;5.90;47.10;;;;;;6283950;28;20258;-78
2023/03/12 13:28:36;;;;;;;4.93;4.63;;;5.90;47.70;;;;;;6262497;28;20393;-80
2023/03/12 13:31:42;;;;;;;5.40;5.00;;;6.00;47.80;;;;;;6288294;28;20229;-78
2023/03/12 13:34:46;;;;;;;6.47;4.63;;;5.90;47.80;;;;;;6288398;28;20240;-78
2023/03/12 13:38:01;;;;;;;5.30;4.83;;;6.00;48.30;;;;;;6297506;28;20724;-79
2023/03/12 13:41:06;;;;;;;5.47;5.03;;;6.10;48.60;;;;;;6282647;28;20304;-78
2023/03/12 13:44:29;;;;;;;4.97;4.57;;;6.20;48.50;;;;;;6282385;28;20251;-77
2023/03/12 13:47:41;;;;;;;4.10;3.90;;;6.10;48.50;;;;;;6287963;28;20233;-80
2023/03/12 13:50:51;;;;;;;4.63;4.30;;;6.00;48.00;;;;;;6285951;27;20234;-81
2023/03/12 13:53:59;;;;;;;4.20;3.90;;;5.80;48.50;;;;;;6288423;28;20230;-80
2023/03/12 13:57:10;;;;;;;4.23;3.87;;;5.90;48.30;;;;;;6291633;27;20732;-78
2023/03/12 14:00:18;;;;;;;4.00;3.90;;;5.80;48.50;;;;;;6288668;28;20241;-80
2023/03/12 14:03:26;;;;;;;4.40;4.10;;;5.80;47.60;;;;;;6285672;28;20236;-82
2023/03/12 14:06:35;;;;;;;3.90;3.80;;;5.80;46.60;;;;;;6288224;28;20241;-79
2023/03/12 14:09:46;;;;;;;4.47;4.23;;;5.70;46.20;;;;;;6297796;28;20244;-81
2023/03/12 14:13:00;;;;;;;4.30;4.20;;;5.60;46.00;;;;;;6277498;28;20758;-82
2023/03/12 14:16:10;;;;;;;4.20;4.10;;;5.70;47.30;;;;;;6273375;28;20618;-81
2023/03/12 14:19:16;;;;;;;5.40;5.00;;;5.50;46.20;;;;;;6268632;28;20416;-80
2023/03/12 14:22:22;;;;;;;4.77;4.37;;;5.30;46.40;;;;;;6292800;28;21009;-79
2023/03/12 14:25:33;;;;;;;4.80;3.87;;;5.30;46.70;;;;;;6275884;28;20246;-81
2023/03/12 14:28:41;;;;;;;4.00;3.80;;;5.30;47.10;;;;;;6276676;28;20225;-80
2023/03/12 14:31:45;;;;;;;3.67;3.37;;;5.40;47.50;;;;;;6274252;28;20736;-79
2023/03/12 14:34:53;;;;;;;3.77;3.47;;;5.30;47.10;;;;;;6269689;28;20819;-80
2023/03/12 14:37:59;;;;;;;3.70;3.60;;;5.10;48.00;;;;;;6263568;28;20625;-77
2023/03/12 14:41:12;;;;;;;3.63;3.53;;;5.20;48.20;;;;;;6280185;28;20284;-79
2023/03/12 14:44:22;;;;;;;3.80;3.60;;;5.30;48.50;;;;;;6278002;28;20857;-79
2023/03/12 14:47:26;;;;;;;3.87;3.77;;;5.30;49.20;;;;;;6284312;28;20237;-79
2023/03/12 14:50:36;;;;;;;4.57;4.20;;;5.10;49.70;;;;;;6291376;28;20394;-80
2023/03/12 14:53:39;;;;;;;4.30;4.10;;;5.10;49.80;;;;;;6287295;27;20234;-80
2023/03/12 14:56:45;;;;;;;4.07;3.87;;;5.00;50.50;;;;;;6265595;28;20226;-78
2023/03/12 14:59:52;;;;;;;3.60;3.50;;;5.00;50.50;;;;;;6278867;27;20253;-78
2023/03/12 15:02:59;;;;;;;4.13;3.93;;;5.00;50.40;;;;;;6267329;28;20270;-81
2023/03/12 15:06:02;;;;;;;4.77;4.50;;;5.00;50.70;;;;;;6284320;28;20236;-80
2023/03/12 15:09:07;;;;;;;4.47;4.27;;;4.90;51.20;;;;;;6310987;28;20228;-80
2023/03/12 15:12:20;;;;;;;4.70;4.30;;;4.90;51.30;;;;;;6275058;28;20238;-81
2023/03/12 15:15:36;;;;;;;3.70;3.50;;;4.70;51.30;;;;;;6273809;28;20229;-80
2023/03/12 15:18:39;;;;;;;5.93;5.53;;;4.90;51.10;;;;;;6268831;28;20234;-78
2023/03/12 15:21:43;;;;;;;5.30;5.00;;;4.80;51.00;;;;;;6272453;28;20353;-79
2023/03/12 15:24:47;;;;;;;4.17;3.97;;;4.80;51.40;;;;;;6264206;28;20257;-81
2023/03/12 15:28:01;;;;;;;4.63;4.33;;;4.80;51.70;;;;;;6286134;28;20290;-82
2023/03/12 15:31:16;;;;;;;7.17;6.63;;;4.90;51.90;;;;;;6274207;27;20238;-81
2023/03/12 15:34:30;;;;;;;3.83;3.63;;;4.80;52.40;;;;;;6282653;28;20318;-82
2023/03/12 15:37:36;;;;;;;4.67;4.37;;;4.70;52.60;;;;;;6285945;28;20229;-80
2023/03/12 15:40:40;;;;;;;5.10;4.80;;;4.70;53.70;;;;;;6277220;28;20355;-77
2023/03/12 15:43:51;;;;;;;5.17;4.77;;;4.40;54.70;;;;;;6275601;28;20221;-78
2023/03/12 15:46:57;;;;;;;4.57;4.33;;;4.50;54.70;;;;;;6272222;28;20261;-81
2023/03/12 15:50:09;;;;;;;4.80;4.60;;;4.40;55.10;;;;;;6278206;28;20235;-81
2023/03/12 15:53:27;;;;;;;5.70;5.20;;;4.30;55.80;;;;;;6282654;28;20225;-83
2023/03/12 15:56:32;;;;;;;6.27;5.70;;;4.20;55.80;;;;;;6276435;28;20233;-78
2023/03/12 15:59:37;;;;;;;5.73;5.43;;;4.30;55.90;;;;;;6286025;28;20238;-80
2023/03/12 16:02:48;;;;;;;5.47;5.10;;;4.20;57.10;;;;;;6264460;28;20246;-79
2023/03/12 16:05:51;;;;;;;6.20;5.70;;;4.10;57.50;;;;;;6272777;28;20233;-79
2023/03/12 16:08:57;;;;;;;5.07;4.57;;;4.20;57.40;;;;;;6276452;28;20618;-78
2023/03/12 16:12:01;;;;;;;6.97;6.47;;;4.00;58.00;;;;;;6271612;28;20314;-80
2023/03/12 16:15:06;;;;;;;6.70;6.07;;;4.00;58.60;;;;;;6275644;28;20249;-82
2023/03/12 16:18:14;;;;;;;6.13;5.63;;;4.00;59.30;;;;;;6284994;28;20229;-79
2023/03/12 16:21:17;;;;;;;6.17;5.67;;;3.90;60.00;;;;;;6276382;28;20244;-82